createdAt,value
2022-09-10T00:01:28.427Z,12.60
2022-09-10T00:03:56.205Z,12.60
2022-09-10T00:06:29.104Z,12.60
2022-09-10T00:09:01.337Z,12.60
2022-09-10T00:11:32.734Z,12.70
2022-09-10T00:14:04.848Z,12.70
2022-09-10T00:16:32.947Z,12.70
2022-09-10T00:19:01.831Z,12.80
2022-09-10T00:21:30.247Z,12.80
2022-09-10T00:23:58.282Z,12.80
2022-09-10T00:30:07.332Z,12.80
2022-09-10T00:36:25.882Z,12.80
2022-09-10T00:38:55.129Z,13.00
2022-09-10T00:41:26.046Z,13.20
2022-09-10T00:44:16.224Z,13.30
2022-09-10T00:46:48.459Z,13.40
2022-09-10T00:49:33.196Z,13.50
2022-09-10T00:52:01.174Z,13.60
2022-09-10T00:54:31.752Z,13.60
2022-09-10T00:57:08.482Z,13.60
2022-09-10T00:59:36.404Z,13.50
2022-09-10T01:02:04.063Z,13.50
2022-09-10T01:04:32.617Z,13.50
2022-09-10T01:07:02.863Z,13.50
2022-09-10T01:09:31.032Z,13.40
2022-09-10T01:12:11.015Z,13.40
2022-09-10T01:15:10.562Z,13.40
2022-09-10T01:18:16.630Z,13.40
2022-09-10T01:20:56.759Z,13.40
2022-09-10T01:23:59.160Z,13.40
2022-09-10T01:27:02.405Z,13.40
2022-09-10T01:30:09.548Z,13.40
2022-09-10T01:32:46.917Z,13.40
2022-09-10T01:35:20.205Z,13.40
2022-09-10T01:37:52.156Z,13.40
2022-09-10T01:40:30.783Z,13.40
2022-09-10T01:43:09.926Z,13.40
2022-09-10T01:46:19.316Z,13.40
2022-09-10T01:49:19.466Z,13.40
2022-09-10T01:52:18.272Z,13.40
2022-09-10T01:55:07.231Z,13.40
2022-09-10T01:58:04.550Z,13.40
2022-09-10T02:00:36.503Z,13.30
2022-09-10T02:03:11.465Z,13.30
2022-09-10T02:05:41.910Z,13.40
2022-09-10T02:08:32.026Z,13.30
2022-09-10T02:11:01.204Z,13.30
2022-09-10T02:13:30.112Z,13.30
2022-09-10T02:15:57.674Z,13.40
2022-09-10T02:18:26.400Z,13.40
2022-09-10T02:20:56.639Z,13.30
2022-09-10T02:23:31.647Z,13.30
2022-09-10T02:25:59.066Z,13.40
2022-09-10T02:28:26.473Z,13.40
2022-09-10T02:30:53.548Z,13.40
2022-09-10T02:33:20.652Z,13.40
2022-09-10T02:35:48.457Z,13.40
2022-09-10T02:38:16.571Z,13.40
2022-09-10T02:40:43.612Z,13.40
2022-09-10T02:43:10.688Z,13.40
2022-09-10T02:45:43.300Z,13.40
2022-09-10T02:48:10.359Z,13.50
2022-09-10T02:50:37.797Z,13.40
2022-09-10T02:53:04.969Z,13.40
2022-09-10T02:55:32.082Z,13.40
2022-09-10T02:58:01.862Z,13.40
2022-09-10T03:00:28.848Z,13.50
2022-09-10T03:03:00.865Z,13.50
2022-09-10T03:05:31.360Z,13.50
2022-09-10T03:08:00.583Z,13.50
2022-09-10T03:10:27.632Z,13.50
2022-09-10T03:12:54.605Z,13.50
2022-09-10T03:15:25.625Z,13.50
2022-09-10T03:17:53.216Z,13.50
2022-09-10T03:20:23.199Z,13.50
2022-09-10T03:22:51.581Z,13.50
2022-09-10T03:25:22.888Z,13.50
2022-09-10T03:27:52.908Z,13.50
2022-09-10T03:30:21.326Z,13.50
2022-09-10T03:32:49.330Z,13.50
2022-09-10T03:35:17.083Z,13.50
2022-09-10T03:37:45.139Z,13.50
2022-09-10T03:40:12.253Z,13.40
2022-09-10T03:42:39.303Z,13.50
2022-09-10T03:45:06.922Z,13.40
2022-09-10T03:47:33.871Z,13.40
2022-09-10T03:50:01.075Z,13.40
2022-09-10T03:52:30.146Z,13.40
2022-09-10T03:54:57.491Z,13.40
2022-09-10T03:57:25.539Z,13.40
2022-09-10T03:59:52.821Z,13.40
2022-09-10T04:02:19.813Z,13.40
2022-09-10T04:04:49.932Z,13.40
2022-09-10T04:07:16.893Z,13.40
2022-09-10T04:09:44.328Z,13.40
2022-09-10T04:12:11.314Z,13.40
2022-09-10T04:14:38.371Z,13.40
2022-09-10T04:17:08.368Z,13.40
2022-09-10T04:19:35.544Z,13.40
2022-09-10T04:22:03.914Z,13.40
2022-09-10T04:24:30.964Z,13.30
2022-09-10T04:26:58.042Z,13.30
2022-09-10T04:29:28.422Z,13.30
2022-09-10T04:31:55.532Z,13.30
2022-09-10T04:34:25.668Z,13.30
2022-09-10T04:36:53.755Z,13.30
2022-09-10T04:39:20.807Z,13.30
2022-09-10T04:41:47.745Z,13.20
2022-09-10T04:44:14.796Z,13.30
2022-09-10T04:46:48.248Z,13.30
2022-09-10T04:49:15.576Z,13.20
2022-09-10T04:51:43.543Z,13.20
2022-09-10T04:54:15.441Z,13.20
2022-09-10T04:56:43.362Z,13.30
2022-09-10T04:59:11.149Z,13.20
2022-09-10T05:01:38.098Z,13.30
2022-09-10T05:04:05.169Z,13.30
2022-09-10T05:06:34.893Z,13.30
2022-09-10T05:09:02.246Z,13.30
2022-09-10T05:11:31.289Z,13.40
2022-09-10T05:13:58.637Z,13.40
2022-09-10T05:16:25.710Z,13.30
2022-09-10T05:18:56.365Z,13.30
2022-09-10T05:21:23.429Z,13.30
2022-09-10T05:23:50.445Z,13.30
2022-09-10T05:26:17.533Z,13.30
2022-09-10T05:28:44.505Z,13.30
2022-09-10T05:31:13.897Z,13.30
2022-09-10T05:33:40.875Z,13.40
2022-09-10T05:36:12.003Z,13.30
2022-09-10T05:38:40.141Z,13.30
2022-09-10T05:41:14.295Z,13.30
2022-09-10T05:43:42.490Z,13.30
2022-09-10T05:46:10.127Z,13.40
2022-09-10T05:48:41.498Z,13.40
2022-09-10T05:51:11.205Z,13.50
2022-09-10T05:53:38.376Z,13.50
2022-09-10T05:56:06.867Z,13.60
2022-09-10T05:58:37.536Z,13.60
2022-09-10T06:01:08.225Z,13.70
2022-09-10T06:03:35.717Z,13.70
2022-09-10T06:06:03.216Z,13.70
2022-09-10T06:08:33.732Z,13.70
2022-09-10T06:11:04.846Z,13.70
2022-09-10T06:13:33.313Z,13.70
2022-09-10T06:16:00.777Z,13.80
2022-09-10T06:18:28.910Z,13.80
2022-09-10T06:21:10.542Z,13.90
2022-09-10T06:23:37.704Z,13.90
2022-09-10T06:26:08.434Z,14.00
2022-09-10T06:28:35.944Z,14.00
2022-09-10T06:31:06.342Z,14.10
2022-09-10T06:33:34.269Z,14.20
2022-09-10T06:36:05.349Z,14.30
2022-09-10T06:38:33.870Z,14.50
2022-09-10T06:41:05.110Z,14.60
2022-09-10T06:43:34.281Z,14.80
2022-09-10T06:46:24.876Z,14.90
2022-09-10T06:49:01.088Z,14.90
2022-09-10T06:51:28.188Z,14.90
2022-09-10T06:53:55.558Z,14.90
2022-09-10T06:56:23.034Z,15.00
2022-09-10T06:58:50.496Z,14.90
2022-09-10T07:01:20.019Z,14.90
2022-09-10T07:03:47.568Z,14.80
2022-09-10T07:06:20.208Z,14.80
2022-09-10T07:08:47.357Z,14.70
2022-09-10T07:11:18.689Z,14.70
2022-09-10T07:13:52.361Z,14.60
2022-09-10T07:16:23.678Z,14.50
2022-09-10T07:18:55.694Z,14.60
2022-09-10T07:21:27.510Z,14.60
2022-09-10T07:24:04.117Z,14.70
2022-09-10T07:26:32.094Z,14.80
2022-09-10T07:29:00.930Z,15.00
2022-09-10T07:31:37.383Z,15.20
2022-09-10T07:34:08.742Z,15.60
2022-09-10T07:36:36.763Z,15.90
2022-09-10T07:39:04.454Z,16.30
2022-09-10T07:41:35.076Z,16.60
2022-09-10T07:44:02.743Z,16.60
2022-09-10T07:46:30.500Z,16.60
2022-09-10T07:48:59.980Z,16.40
2022-09-10T07:51:30.202Z,16.30
2022-09-10T07:53:59.726Z,16.20
2022-09-10T07:56:27.640Z,16.20
2022-09-10T07:58:57.865Z,16.30
2022-09-10T08:01:26.143Z,16.20
2022-09-10T08:03:59.544Z,16.10
2022-09-10T08:06:27.319Z,16.00
2022-09-10T08:08:55.505Z,16.00
2022-09-10T08:11:27.202Z,16.00
2022-09-10T08:13:57.100Z,16.00
2022-09-10T08:16:25.526Z,16.00
2022-09-10T08:18:56.282Z,16.10
2022-09-10T08:21:27.036Z,16.00
2022-09-10T08:23:55.836Z,16.00
2022-09-10T08:26:24.921Z,15.90
2022-09-10T08:28:59.143Z,15.90
2022-09-10T08:31:26.886Z,15.90
2022-09-10T08:33:55.845Z,16.10
2022-09-10T08:36:24.405Z,16.40
2022-09-10T08:38:57.002Z,16.70
2022-09-10T08:41:39.708Z,17.00
2022-09-10T08:44:17.998Z,17.00
2022-09-10T08:47:05.002Z,17.10
2022-09-10T08:49:50.775Z,17.10
2022-09-10T08:52:41.890Z,17.20
2022-09-10T08:55:18.546Z,17.20
2022-09-10T08:58:11.776Z,17.10
2022-09-10T09:00:46.764Z,17.10
2022-09-10T09:03:33.139Z,17.20
2022-09-10T09:06:02.609Z,17.30
2022-09-10T09:08:41.478Z,17.40
2022-09-10T09:11:50.500Z,17.20
2022-09-10T09:14:45.371Z,16.90
2022-09-10T09:17:58.865Z,16.60
2022-09-10T09:20:34.956Z,16.50
2022-09-10T09:23:26.384Z,16.50
2022-09-10T09:26:10.948Z,16.60
2022-09-10T09:28:48.932Z,16.80
2022-09-10T09:31:42.937Z,17.00
2022-09-10T09:34:25.842Z,17.10
2022-09-10T09:36:57.690Z,17.30
2022-09-10T09:39:40.286Z,17.30
2022-09-10T09:42:29.139Z,17.50
2022-09-10T09:45:35.017Z,17.50
2022-09-10T09:48:02.736Z,17.70
2022-09-10T09:50:38.990Z,18.00
2022-09-10T09:53:06.132Z,17.90
2022-09-10T09:55:47.085Z,17.90
2022-09-10T09:58:28.959Z,17.50
2022-09-10T10:01:05.209Z,17.10
2022-09-10T10:03:53.856Z,16.90
2022-09-10T10:06:25.153Z,16.90
2022-09-10T10:08:57.766Z,16.90
2022-09-10T10:11:39.634Z,17.00
2022-09-10T10:14:36.503Z,17.30
2022-09-10T10:17:31.339Z,17.60
2022-09-10T10:19:59.993Z,17.80
2022-09-10T10:22:32.618Z,18.10
2022-09-10T10:25:02.191Z,18.20
2022-09-10T10:27:33.116Z,18.50
2022-09-10T10:30:09.609Z,18.40
2022-09-10T10:32:58.055Z,18.40
2022-09-10T10:35:34.002Z,18.40
2022-09-10T10:38:29.441Z,18.50
2022-09-10T10:41:30.298Z,18.80
2022-09-10T10:44:27.239Z,18.70
2022-09-10T10:47:19.030Z,18.60
2022-09-10T10:49:57.474Z,18.70
2022-09-10T10:52:44.771Z,18.90
2022-09-10T10:55:17.691Z,19.00
2022-09-10T10:58:11.567Z,19.00
2022-09-10T11:00:52.469Z,18.90
2022-09-10T11:03:45.043Z,18.70
2022-09-10T11:06:19.665Z,18.80
2022-09-10T11:09:03.351Z,19.30
2022-09-10T11:11:35.549Z,20.10
2022-09-10T11:14:23.388Z,20.80
2022-09-10T11:16:58.746Z,21.40
2022-09-10T11:20:10.821Z,21.90
2022-09-10T11:22:48.899Z,22.20
2022-09-10T11:25:27.993Z,22.00
2022-09-10T11:28:25.441Z,22.10
2022-09-10T11:31:10.001Z,22.00
2022-09-10T11:34:11.241Z,21.60
2022-09-10T11:37:02.209Z,21.10
2022-09-10T11:39:45.210Z,21.10
2022-09-10T11:42:33.550Z,21.60
2022-09-10T11:45:23.605Z,22.20
2022-09-10T11:48:02.270Z,22.50
2022-09-10T11:50:54.840Z,22.20
2022-09-10T11:53:24.946Z,21.50
2022-09-10T11:56:10.954Z,20.60
2022-09-10T11:59:03.689Z,19.70
2022-09-10T12:01:56.207Z,19.00
2022-09-10T12:05:01.147Z,18.20
2022-09-10T12:07:37.284Z,17.80
2022-09-10T12:10:29.041Z,17.60
2022-09-10T12:12:56.216Z,17.40
2022-09-10T12:15:25.915Z,17.40
2022-09-10T12:18:17.582Z,17.30
2022-09-10T12:21:08.900Z,17.20
2022-09-10T12:23:43.225Z,17.20
2022-09-10T12:26:18.322Z,17.20
2022-09-10T12:28:46.154Z,17.90
2022-09-10T12:31:17.187Z,18.50
2022-09-10T12:33:46.745Z,18.50
2022-09-10T12:36:34.372Z,18.30
2022-09-10T12:39:20.460Z,18.10
2022-09-10T12:41:47.702Z,18.00
2022-09-10T12:44:36.881Z,18.30
2022-09-10T12:47:16.547Z,19.00
2022-09-10T12:50:01.862Z,19.00
2022-09-10T12:52:51.232Z,19.00
2022-09-10T12:55:38.018Z,19.40
2022-09-10T12:58:17.212Z,19.30
2022-09-10T13:01:12.434Z,19.10
2022-09-10T13:03:55.600Z,19.00
2022-09-10T13:06:40.120Z,18.90
2022-09-10T13:09:21.077Z,19.20
2022-09-10T13:11:54.974Z,19.30
2022-09-10T13:14:30.992Z,19.30
2022-09-10T13:16:58.247Z,19.40
2022-09-10T13:19:33.424Z,19.40
2022-09-10T13:22:03.655Z,19.60
2022-09-10T13:24:40.949Z,19.60
2022-09-10T13:27:38.382Z,19.40
2022-09-10T13:30:22.332Z,19.30
2022-09-10T13:32:57.720Z,19.10
2022-09-10T13:35:50.214Z,18.90
2022-09-10T13:38:36.526Z,18.70
2022-09-10T13:41:44.703Z,18.40
2022-09-10T13:44:50.609Z,18.20
2022-09-10T13:47:24.544Z,18.00
2022-09-10T13:50:02.707Z,17.80
2022-09-10T13:52:34.716Z,17.80
2022-09-10T13:55:03.523Z,18.00
2022-09-10T13:57:49.187Z,18.40
2022-09-10T14:00:23.984Z,19.30
2022-09-10T14:02:59.897Z,20.00
2022-09-10T14:05:51.098Z,20.30
2022-09-10T14:08:21.457Z,20.10
2022-09-10T14:10:56.082Z,20.00
2022-09-10T14:13:38.317Z,19.80
2022-09-10T14:16:09.902Z,19.50
2022-09-10T14:18:45.217Z,19.20
2022-09-10T14:21:14.317Z,18.70
2022-09-10T14:23:46.551Z,18.40
2022-09-10T14:26:17.761Z,18.20
2022-09-10T14:29:01.339Z,18.00
2022-09-10T14:31:36.999Z,17.80
2022-09-10T14:34:27.003Z,17.60
2022-09-10T14:36:54.058Z,17.50
2022-09-10T14:39:22.725Z,17.40
2022-09-10T14:42:25.300Z,17.40
2022-09-10T14:44:53.024Z,17.60
2022-09-10T14:47:29.893Z,17.90
2022-09-10T14:50:34.339Z,18.20
2022-09-10T14:53:01.555Z,18.60
2022-09-10T14:55:32.950Z,18.70
2022-09-10T14:58:00.480Z,18.80
2022-09-10T15:00:28.382Z,18.90
2022-09-10T15:02:57.426Z,19.30
2022-09-10T15:05:24.896Z,19.60
2022-09-10T15:07:55.052Z,20.10
2022-09-10T15:10:22.074Z,20.50
2022-09-10T15:12:52.219Z,20.90
2022-09-10T15:15:19.775Z,20.70
2022-09-10T15:17:47.230Z,20.40
2022-09-10T15:20:19.427Z,19.80
2022-09-10T15:22:52.628Z,19.30
2022-09-10T15:25:33.912Z,19.00
2022-09-10T15:28:07.842Z,18.70
2022-09-10T15:30:37.140Z,18.50
2022-09-10T15:33:05.865Z,18.40
2022-09-10T15:35:33.030Z,18.20
2022-09-10T15:38:04.340Z,18.10
2022-09-10T15:40:31.504Z,18.00
2022-09-10T15:42:59.607Z,17.90
2022-09-10T15:45:27.511Z,17.70
2022-09-10T15:47:54.974Z,17.40
2022-09-10T15:50:25.463Z,17.20
2022-09-10T15:52:52.472Z,17.10
2022-09-10T15:55:19.649Z,17.20
2022-09-10T15:57:50.166Z,17.20
2022-09-10T16:00:18.630Z,17.30
2022-09-10T16:02:49.941Z,17.40
2022-09-10T16:05:17.289Z,17.40
2022-09-10T16:07:45.050Z,17.50
2022-09-10T16:10:12.769Z,17.50
2022-09-10T16:12:39.927Z,17.60
2022-09-10T16:15:07.622Z,17.60
2022-09-10T16:17:35.291Z,17.50
2022-09-10T16:20:02.568Z,17.40
2022-09-10T16:22:30.710Z,17.30
2022-09-10T16:24:58.714Z,17.00
2022-09-10T16:27:25.984Z,17.00
2022-09-10T16:29:53.355Z,16.90
2022-09-10T16:32:20.635Z,16.80
2022-09-10T16:34:48.309Z,16.80
2022-09-10T16:37:17.603Z,16.90
2022-09-10T16:39:44.879Z,17.10
2022-09-10T16:42:13.870Z,17.10
2022-09-10T16:44:41.411Z,17.00
2022-09-10T16:47:08.432Z,16.90
2022-09-10T16:49:39.616Z,16.70
2022-09-10T16:52:09.736Z,16.60
2022-09-10T16:54:38.691Z,16.50
2022-09-10T16:57:05.991Z,16.40
2022-09-10T16:59:33.313Z,16.30
2022-09-10T17:02:00.940Z,16.20
2022-09-10T17:04:32.790Z,16.00
2022-09-10T17:06:59.944Z,16.00
2022-09-10T17:09:26.987Z,15.90
2022-09-10T17:11:53.949Z,15.90
2022-09-10T17:14:20.996Z,15.90
2022-09-10T17:16:50.240Z,15.90
2022-09-10T17:19:26.647Z,15.90
2022-09-10T17:21:55.983Z,15.90
2022-09-10T17:24:27.857Z,15.90
2022-09-10T17:26:56.069Z,15.80
2022-09-10T17:29:25.743Z,15.80
2022-09-10T17:31:55.559Z,15.70
2022-09-10T17:34:24.804Z,15.70
2022-09-10T17:36:57.610Z,15.50
2022-09-10T17:39:29.502Z,15.40
2022-09-10T17:42:03.835Z,15.40
2022-09-10T17:44:32.021Z,15.30
2022-09-10T17:47:00.261Z,15.20
2022-09-10T17:49:29.827Z,15.20
2022-09-10T17:52:03.237Z,15.10
2022-09-10T17:54:34.565Z,15.00
2022-09-10T17:57:03.420Z,15.00
2022-09-10T17:59:31.367Z,14.90
2022-09-10T18:02:06.715Z,14.90
2022-09-10T18:04:33.724Z,14.80
2022-09-10T18:07:01.245Z,14.80
2022-09-10T18:09:28.463Z,14.70
2022-09-10T18:11:56.629Z,14.70
2022-09-10T18:14:32.781Z,14.60
2022-09-10T18:16:59.955Z,14.60
2022-09-10T18:19:29.089Z,14.60
2022-09-10T18:21:56.184Z,14.50
2022-09-10T18:24:26.408Z,14.50
2022-09-10T18:26:54.396Z,14.40
2022-09-10T18:29:25.565Z,14.40
2022-09-10T18:31:55.938Z,14.40
2022-09-10T18:34:25.290Z,14.40
2022-09-10T18:36:54.532Z,14.40
2022-09-10T18:39:22.743Z,14.30
2022-09-10T18:41:52.175Z,14.30
2022-09-10T18:44:25.229Z,14.30
2022-09-10T18:46:53.389Z,14.30
2022-09-10T18:49:23.545Z,14.30
2022-09-10T18:51:52.988Z,14.30
2022-09-10T18:54:21.852Z,14.40
2022-09-10T18:56:56.517Z,14.40
2022-09-10T18:59:25.757Z,14.40
2022-09-10T19:01:54.935Z,14.50
2022-09-10T19:04:28.212Z,14.50
2022-09-10T19:06:57.563Z,14.50
2022-09-10T19:09:30.908Z,14.50
2022-09-10T19:12:04.614Z,14.50
2022-09-10T19:14:36.358Z,14.60
2022-09-10T19:17:04.822Z,14.60
2022-09-10T19:19:36.905Z,14.60
2022-09-10T19:22:14.022Z,14.50
2022-09-10T19:24:54.657Z,14.50
2022-09-10T19:27:27.093Z,14.50
2022-09-10T19:29:56.547Z,14.50
2022-09-10T19:32:34.039Z,14.50
2022-09-10T19:35:02.333Z,14.50
2022-09-10T19:37:41.295Z,14.50
2022-09-10T19:40:12.486Z,14.50
2022-09-10T19:42:43.155Z,14.50
2022-09-10T19:45:13.833Z,14.60
2022-09-10T19:47:43.887Z,14.50
2022-09-10T19:50:13.274Z,14.50
2022-09-10T19:52:41.996Z,14.50
2022-09-10T19:55:13.183Z,14.50
2022-09-10T19:57:42.497Z,14.50
2022-09-10T20:00:30.106Z,14.50
2022-09-10T20:03:09.127Z,14.60
2022-09-10T20:05:39.580Z,14.50
2022-09-10T20:08:11.285Z,14.50
2022-09-10T20:10:39.730Z,14.50
2022-09-10T20:13:13.688Z,14.50
2022-09-10T20:15:50.012Z,14.50
2022-09-10T20:18:17.915Z,14.50
2022-09-10T20:20:47.516Z,14.50
2022-09-10T20:23:18.897Z,14.40
2022-09-10T20:25:46.935Z,14.40
2022-09-10T20:28:18.387Z,14.40
2022-09-10T20:30:47.444Z,14.40
2022-09-10T20:33:18.080Z,14.50
2022-09-10T20:35:49.916Z,14.50
2022-09-10T20:38:22.246Z,14.50
2022-09-10T20:40:54.749Z,14.50
2022-09-10T20:43:23.544Z,14.50
2022-09-10T20:45:50.576Z,14.50
2022-09-10T20:48:18.962Z,14.50
2022-09-10T20:50:56.484Z,14.50
2022-09-10T20:53:26.367Z,14.50
2022-09-10T20:56:03.309Z,14.50
2022-09-10T20:58:34.107Z,14.50
2022-09-10T21:01:07.276Z,14.50
2022-09-10T21:03:37.677Z,14.40
2022-09-10T21:06:09.031Z,14.40
2022-09-10T21:08:39.110Z,14.40
2022-09-10T21:11:13.382Z,14.40
2022-09-10T21:13:50.240Z,14.40
2022-09-10T21:16:33.884Z,14.40
2022-09-10T21:19:06.400Z,14.40
2022-09-10T21:21:35.968Z,14.40
2022-09-10T21:24:07.328Z,14.30
2022-09-10T21:26:40.432Z,14.30
2022-09-10T21:29:14.873Z,14.30
2022-09-10T21:31:48.127Z,14.30
2022-09-10T21:34:16.267Z,14.30
2022-09-10T21:36:48.143Z,14.30
2022-09-10T21:39:18.641Z,14.30
2022-09-10T21:41:52.772Z,14.30
2022-09-10T21:44:22.475Z,14.30
2022-09-10T21:46:53.481Z,14.30
2022-09-10T21:49:21.425Z,14.20
2022-09-10T21:51:53.112Z,14.20
2022-09-10T21:54:22.817Z,14.30
2022-09-10T21:56:52.055Z,14.30
2022-09-10T21:59:20.809Z,14.20
2022-09-10T22:01:55.079Z,14.30
2022-09-10T22:04:23.486Z,14.20
2022-09-10T22:06:54.184Z,14.30
2022-09-10T22:09:25.159Z,14.20
2022-09-10T22:11:54.622Z,14.20
2022-09-10T22:14:25.645Z,14.10
2022-09-10T22:16:56.723Z,14.20
2022-09-10T22:19:26.346Z,14.20
2022-09-10T22:21:58.064Z,14.10
2022-09-10T22:24:27.817Z,14.10
2022-09-10T22:26:58.610Z,14.20
2022-09-10T22:29:27.187Z,14.20
2022-09-10T22:31:57.186Z,14.20
2022-09-10T22:34:25.046Z,14.20
2022-09-10T22:36:52.534Z,14.20
2022-09-10T22:39:23.835Z,14.20
2022-09-10T22:41:52.569Z,14.10
2022-09-10T22:44:20.433Z,14.10
2022-09-10T22:46:48.592Z,14.10
2022-09-10T22:49:16.803Z,14.20
2022-09-10T22:51:45.155Z,14.20
2022-09-10T22:54:12.972Z,14.20
2022-09-10T22:56:42.853Z,14.20
2022-09-10T22:59:14.372Z,14.30
2022-09-10T23:01:43.934Z,14.30
2022-09-10T23:04:12.745Z,14.30
2022-09-10T23:06:41.079Z,14.30
2022-09-10T23:09:16.243Z,14.30
2022-09-10T23:11:44.733Z,14.30
2022-09-10T23:14:19.345Z,14.30
2022-09-10T23:16:49.031Z,14.30
2022-09-10T23:19:27.246Z,14.30
2022-09-10T23:21:55.393Z,14.30
2022-09-10T23:24:27.123Z,14.30
2022-09-10T23:26:55.849Z,14.30
2022-09-10T23:29:24.178Z,14.30
2022-09-10T23:31:55.025Z,14.30
2022-09-10T23:34:23.606Z,14.30
2022-09-10T23:36:52.991Z,14.30
2022-09-10T23:39:26.062Z,14.30
2022-09-10T23:41:57.471Z,14.30
2022-09-10T23:44:26.669Z,14.30
2022-09-10T23:46:57.727Z,14.30
2022-09-10T23:49:25.827Z,14.30
2022-09-10T23:52:04.711Z,14.20
2022-09-10T23:54:32.319Z,14.20
2022-09-10T23:57:03.691Z,14.20
2022-09-10T23:59:34.684Z,14.20
